Time;durP1;ratioP1;P1;durP2;ratioP2;P2;SDS_P1;SDS_P2;PMS_P1;PMS_P2;Temp;Humidity;BMP_temperature;BMP_pressure;BME280_temperature;BME280_humidity;BME280_pressure;Samples;Min_cycle;Max_cycle;Signal;HPM_P1;HPM_P2
2023/10/17 00:02:26;;;;;;;3.85;3.10;;;6.00;97.70;;;;;;6245565;28;20054;-75
2023/10/17 00:05:29;;;;;;;3.45;2.50;;;6.00;97.80;;;;;;6245257;28;20044;-75
2023/10/17 00:08:32;;;;;;;9.45;3.50;;;5.90;97.90;;;;;;6245369;28;20449;-75
2023/10/17 00:11:45;;;;;;;4.65;2.97;;;5.90;98.00;;;;;;6245101;28;20423;-74
2023/10/17 00:14:58;;;;;;;3.92;2.90;;;5.80;98.10;;;;;;6244955;28;20056;-75
2023/10/17 00:18:04;;;;;;;5.18;3.03;;;5.80;98.20;;;;;;6245078;28;20049;-75
2023/10/17 00:21:15;;;;;;;2.85;2.40;;;5.80;98.30;;;;;;6244915;28;20469;-75
2023/10/17 00:24:19;;;;;;;3.20;2.28;;;5.80;98.30;;;;;;6245458;28;20080;-75
2023/10/17 00:27:20;;;;;;;3.53;2.90;;;5.80;98.40;;;;;;6238769;28;20506;-75
2023/10/17 00:30:22;;;;;;;3.38;2.70;;;5.70;98.50;;;;;;6244646;28;20514;-75
2023/10/17 00:33:24;;;;;;;3.83;2.85;;;5.70;98.60;;;;;;6245081;28;20138;-75
2023/10/17 00:36:28;;;;;;;3.50;2.97;;;5.70;98.70;;;;;;6245300;28;20055;-75
2023/10/17 00:39:30;;;;;;;2.35;2.15;;;5.70;98.80;;;;;;6244663;28;20156;-75
2023/10/17 00:42:34;;;;;;;2.90;2.63;;;5.70;98.80;;;;;;6244846;28;20064;-75
2023/10/17 00:45:36;;;;;;;3.42;3.10;;;5.70;98.90;;;;;;6244676;28;20501;-75
2023/10/17 00:48:39;;;;;;;4.18;3.15;;;5.70;99.00;;;;;;6244559;28;20075;-75
2023/10/17 00:51:42;;;;;;;3.97;3.10;;;5.70;99.10;;;;;;6244528;28;20046;-75
2023/10/17 00:54:44;;;;;;;4.22;3.20;;;5.80;99.10;;;;;;6239011;28;20044;-74
2023/10/17 00:57:48;;;;;;;3.17;2.85;;;5.80;99.10;;;;;;6241767;28;20045;-75
2023/10/17 01:00:53;;;;;;;5.88;3.15;;;5.80;99.10;;;;;;6245722;28;20053;-75
2023/10/17 01:03:58;;;;;;;3.08;2.35;;;5.70;99.10;;;;;;6249385;28;20050;-75
2023/10/17 01:07:05;;;;;;;5.55;2.65;;;5.70;99.20;;;;;;6248878;28;20184;-75
2023/10/17 01:10:10;;;;;;;3.83;2.47;;;5.60;99.20;;;;;;6249227;28;20128;-75
2023/10/17 01:13:11;;;;;;;4.72;2.28;;;5.60;99.30;;;;;;6248982;28;20061;-75
2023/10/17 01:16:16;;;;;;;2.75;2.55;;;5.60;99.30;;;;;;6246133;28;20479;-75
2023/10/17 01:19:19;;;;;;;2.65;2.25;;;5.50;99.60;;;;;;6228769;28;20050;-75
2023/10/17 01:22:22;;;;;;;3.83;2.92;;;5.50;99.50;;;;;;6248874;28;20054;-75
2023/10/17 01:25:26;;;;;;;4.05;2.90;;;5.40;99.60;;;;;;6248448;28;20041;-75
2023/10/17 01:28:28;;;;;;;3.50;2.47;;;5.30;99.70;;;;;;6248865;28;20110;-75
2023/10/17 01:31:37;;;;;;;4.63;3.00;;;5.30;99.80;;;;;;6248789;28;20053;-75
2023/10/17 01:34:39;;;;;;;4.15;2.60;;;5.30;99.80;;;;;;6248516;28;20061;-75
2023/10/17 01:37:41;;;;;;;5.93;2.88;;;5.30;99.90;;;;;;6248398;28;20391;-75
2023/10/17 01:40:44;;;;;;;3.75;2.78;;;5.20;99.90;;;;;;6248657;28;20050;-75
2023/10/17 01:43:46;;;;;;;4.22;3.08;;;5.20;99.90;;;;;;6248201;28;20041;-75
2023/10/17 01:46:49;;;;;;;7.68;3.63;;;5.20;99.90;;;;;;6247886;28;20042;-75
2023/10/17 01:49:51;;;;;;;4.93;2.72;;;5.20;99.90;;;;;;6248302;28;20045;-75
2023/10/17 01:52:54;;;;;;;4.03;2.92;;;5.10;99.90;;;;;;6248475;28;20056;-75
2023/10/17 01:56:06;;;;;;;4.55;3.00;;;5.10;99.90;;;;;;6248270;28;20057;-75
2023/10/17 01:59:13;;;;;;;5.10;3.15;;;5.00;99.90;;;;;;6247716;28;20049;-75
2023/10/17 02:02:14;;;;;;;5.45;2.65;;;5.10;99.90;;;;;;6239927;28;20088;-75
2023/10/17 02:05:17;;;;;;;4.78;3.50;;;5.00;99.90;;;;;;6247399;28;20049;-75
2023/10/17 02:08:21;;;;;;;3.80;3.15;;;5.10;99.90;;;;;;6248225;28;20060;-75
2023/10/17 02:11:25;;;;;;;5.85;3.80;;;5.10;99.90;;;;;;6247533;28;20045;-75
2023/10/17 02:14:27;;;;;;;3.03;2.55;;;5.10;99.90;;;;;;6247083;28;20540;-74
2023/10/17 02:17:29;;;;;;;4.65;3.83;;;5.10;99.90;;;;;;6247402;28;20053;-74
2023/10/17 02:20:34;;;;;;;3.72;3.00;;;5.10;99.90;;;;;;6247673;28;20052;-75
2023/10/17 02:23:43;;;;;;;3.13;2.65;;;5.20;99.90;;;;;;6247506;28;20138;-75
2023/10/17 02:26:54;;;;;;;5.47;3.30;;;5.20;99.90;;;;;;6246965;28;20099;-75
2023/10/17 02:29:58;;;;;;;5.85;3.85;;;5.20;99.90;;;;;;6246975;28;20392;-76
2023/10/17 02:33:01;;;;;;;3.92;2.60;;;5.20;99.90;;;;;;6247242;28;20435;-75
2023/10/17 02:36:08;;;;;;;3.75;2.55;;;5.20;99.90;;;;;;6247601;28;20046;-75
2023/10/17 02:39:10;;;;;;;3.58;2.42;;;5.30;99.90;;;;;;6229382;28;20079;-75
2023/10/17 02:42:15;;;;;;;5.03;3.40;;;5.30;99.90;;;;;;6239005;28;20041;-74
2023/10/17 02:45:24;;;;;;;5.15;3.85;;;5.30;99.90;;;;;;6246760;28;20042;-75
2023/10/17 02:48:26;;;;;;;4.18;2.83;;;5.30;99.90;;;;;;6239572;28;20458;-74
2023/10/17 02:51:34;;;;;;;3.35;2.78;;;5.20;99.90;;;;;;6246621;28;20054;-75
2023/10/17 02:54:54;;;;;;;;;;;5.20;99.90;;;;;;6247570;28;20408;-75
2023/10/17 02:57:57;;;;;;;4.55;3.58;;;5.20;99.90;;;;;;6245995;28;19925;-74
2023/10/17 03:00:59;;;;;;;3.00;2.30;;;5.10;99.90;;;;;;6246870;28;20056;-74
2023/10/17 03:04:07;;;;;;;3.40;2.63;;;5.10;99.90;;;;;;6246856;28;20053;-75
2023/10/17 03:07:11;;;;;;;4.47;3.08;;;5.10;99.90;;;;;;6246473;28;20053;-75
2023/10/17 03:10:20;;;;;;;4.63;2.70;;;5.00;99.90;;;;;;6246265;28;20056;-75
2023/10/17 03:13:23;;;;;;;5.72;3.20;;;5.00;99.90;;;;;;6246233;28;20418;-75
2023/10/17 03:16:25;;;;;;;3.22;2.65;;;4.90;99.90;;;;;;6246344;28;20057;-75
2023/10/17 03:19:27;;;;;;;4.30;3.42;;;4.90;99.90;;;;;;6244099;28;20052;-74
2023/10/17 03:22:29;;;;;;;5.55;3.38;;;4.80;99.90;;;;;;6239854;28;20045;-75
2023/10/17 03:25:37;;;;;;;3.75;2.95;;;4.80;99.90;;;;;;6245157;28;20502;-75
2023/10/17 03:28:40;;;;;;;;;;;4.70;99.90;;;;;;6246435;28;20045;-75
2023/10/17 03:31:45;;;;;;;3.85;3.05;;;4.70;99.90;;;;;;6245957;28;19992;-75
2023/10/17 03:34:52;;;;;;;5.10;2.72;;;4.70;99.90;;;;;;6246278;28;20049;-75
2023/10/17 03:37:55;;;;;;;3.97;2.53;;;4.60;99.90;;;;;;6247395;28;20047;-75
2023/10/17 03:41:02;;;;;;;8.48;3.72;;;4.60;99.90;;;;;;6245701;28;20283;-74
2023/10/17 03:44:05;;;;;;;3.75;3.10;;;4.60;99.90;;;;;;6246371;28;20054;-75
2023/10/17 03:47:07;;;;;;;4.63;3.50;;;4.60;99.90;;;;;;6245912;28;20049;-75
2023/10/17 03:50:10;;;;;;;4.70;3.65;;;4.60;99.90;;;;;;6245494;28;20050;-75
2023/10/17 03:53:15;;;;;;;7.93;3.50;;;4.60;99.90;;;;;;6245657;28;20049;-75
2023/10/17 03:56:24;;;;;;;5.85;3.47;;;4.70;99.90;;;;;;6245943;28;20418;-75
2023/10/17 03:59:36;;;;;;;5.22;3.33;;;4.80;99.90;;;;;;6245148;28;20065;-75
2023/10/17 04:02:41;;;;;;;3.53;3.22;;;4.80;99.90;;;;;;6244102;28;20048;-76
2023/10/17 04:05:43;;;;;;;2.80;2.60;;;4.90;99.90;;;;;;6245024;28;20125;-76
2023/10/17 04:08:49;;;;;;;5.68;3.85;;;5.00;99.90;;;;;;6245479;28;20046;-75
2023/10/17 04:11:55;;;;;;;4.78;3.42;;;5.10;99.90;;;;;;6245463;28;20057;-76
2023/10/17 04:14:59;;;;;;;6.97;4.72;;;5.10;99.90;;;;;;6245210;28;20072;-76
2023/10/17 04:18:02;;;;;;;8.27;3.83;;;5.20;99.90;;;;;;6245208;28;20103;-76
2023/10/17 04:21:16;;;;;;;7.32;4.00;;;5.20;99.90;;;;;;6245070;28;20053;-76
2023/10/17 04:24:27;;;;;;;4.88;3.65;;;5.20;99.90;;;;;;6245669;28;20146;-76
2023/10/17 04:27:32;;;;;;;5.53;3.30;;;5.30;99.90;;;;;;6244732;28;20042;-76
2023/10/17 04:30:38;;;;;;;6.78;3.42;;;5.30;99.90;;;;;;6244723;28;20053;-76
2023/10/17 04:33:41;;;;;;;5.20;3.10;;;5.30;99.90;;;;;;6245080;28;20414;-76
2023/10/17 04:36:43;;;;;;;8.90;3.15;;;5.30;99.90;;;;;;6247461;28;20049;-76
2023/10/17 04:39:57;;;;;;;5.68;3.47;;;5.30;99.90;;;;;;6249830;28;20049;-76
2023/10/17 04:43:43;;;;;;;5.90;3.88;;;5.30;99.90;;;;;;6249829;28;20056;-76
2023/10/17 04:46:34;;;;;;;4.80;3.20;;;5.30;99.90;;;;;;6237847;28;20060;-76
2023/10/17 04:49:36;;;;;;;4.60;3.03;;;5.30;99.90;;;;;;6249916;28;20128;-75
2023/10/17 04:52:40;;;;;;;4.78;3.03;;;5.20;99.90;;;;;;6250131;28;20057;-75
2023/10/17 04:56:00;;;;;;;3.47;2.85;;;5.30;99.90;;;;;;6249630;28;20033;-76
2023/10/17 04:59:02;;;;;;;4.07;3.40;;;5.20;99.90;;;;;;6249472;28;20051;-76
2023/10/17 05:02:28;;;;;;;6.55;3.58;;;5.20;99.90;;;;;;6249719;28;20050;-75
2023/10/17 05:05:45;;;;;;;5.50;3.85;;;5.20;99.90;;;;;;6249224;28;20061;-75
2023/10/17 05:09:12;;;;;;;6.00;3.50;;;5.20;99.90;;;;;;6249523;28;20061;-76
2023/10/17 06:18:49;;;;;;;8.45;4.03;;;5.90;99.90;;;;;;6222908;28;20128;-74
2023/10/17 06:28:34;;;;;;;7.25;4.82;;;6.00;99.90;;;;;;6206813;28;20046;-74
2023/10/17 06:31:35;;;;;;;4.20;3.80;;;6.10;99.90;;;;;;6198120;28;20046;-71
2023/10/17 06:34:38;;;;;;;6.15;4.00;;;6.20;99.90;;;;;;6214604;28;20460;-71
2023/10/17 06:37:42;;;;;;;4.50;3.38;;;6.30;99.90;;;;;;6206692;28;20074;-74
2023/10/17 06:40:46;;;;;;;7.57;4.25;;;6.40;99.90;;;;;;6198375;28;20046;-72
2023/10/17 06:43:49;;;;;;;11.45;4.75;;;6.40;99.90;;;;;;6213618;28;20477;-71
2023/10/17 06:46:55;;;;;;;4.55;3.60;;;6.50;99.90;;;;;;6206134;28;20050;-71
2023/10/17 06:53:18;;;;;;;5.43;4.18;;;6.60;99.90;;;;;;6222319;28;20046;-72
2023/10/17 06:56:25;;;;;;;6.93;5.15;;;6.70;99.90;;;;;;6222752;28;20045;-72
2023/10/17 06:59:35;;;;;;;65.47;27.20;;;6.80;99.90;;;;;;6221362;28;20052;-72
2023/10/17 07:02:41;;;;;;;132.40;67.57;;;6.90;99.90;;;;;;6221908;28;20054;-72
2023/10/17 07:05:49;;;;;;;31.17;22.95;;;7.00;99.90;;;;;;6203416;28;20045;-72
2023/10/17 07:08:53;;;;;;;11.02;9.45;;;7.00;99.90;;;;;;6197923;28;20069;-72
2023/10/17 07:12:02;;;;;;;11.48;8.18;;;7.10;99.90;;;;;;6197272;28;20038;-72
2023/10/17 07:15:12;;;;;;;21.40;19.50;;;7.20;99.90;;;;;;6197306;28;20419;-72
2023/10/17 07:21:38;;;;;;;10.73;5.18;;;7.50;99.90;;;;;;6222296;28;20045;-72
2023/10/17 07:24:44;;;;;;;9.23;7.70;;;7.70;99.90;;;;;;6197712;28;20057;-72
2023/10/17 07:27:48;;;;;;;5.55;4.93;;;7.80;99.90;;;;;;6199505;28;20038;-72
2023/10/17 07:30:57;;;;;;;7.30;5.28;;;8.00;99.90;;;;;;6218733;28;20050;-72
2023/10/17 07:34:16;;;;;;;8.55;5.57;;;8.10;99.90;;;;;;6233267;28;20041;-72
2023/10/17 07:37:23;;;;;;;6.57;5.00;;;8.30;99.90;;;;;;6206561;28;20058;-72
2023/10/17 07:40:33;;;;;;;8.50;5.15;;;8.60;99.90;;;;;;6205579;28;20105;-71
2023/10/17 07:43:36;;;;;;;6.72;4.57;;;8.70;99.90;;;;;;6201409;28;20053;-71
2023/10/17 07:46:38;;;;;;;6.80;4.60;;;8.90;99.90;;;;;;6212987;28;20469;-73
2023/10/17 07:49:41;;;;;;;7.88;5.38;;;9.00;99.90;;;;;;6214498;28;20047;-72
2023/10/17 07:52:43;;;;;;;9.38;5.57;;;9.10;99.90;;;;;;6208838;28;20397;-72
2023/10/17 07:55:47;;;;;;;6.25;4.75;;;9.20;99.90;;;;;;6215234;28;20044;-72
2023/10/17 07:58:57;;;;;;;7.40;4.97;;;9.30;99.90;;;;;;6220970;28;20049;-73
2023/10/17 08:02:00;;;;;;;12.05;5.47;;;9.30;99.90;;;;;;6217122;28;20515;-72
2023/10/17 08:05:16;;;;;;;6.53;4.38;;;9.40;99.90;;;;;;6200926;28;20038;-72
2023/10/17 08:08:20;;;;;;;15.60;9.95;;;9.50;99.90;;;;;;6198485;28;20065;-73
2023/10/17 08:11:27;;;;;;;7.93;6.20;;;9.50;99.50;;;;;;6196081;28;20574;-72
2023/10/17 08:14:34;;;;;;;6.63;5.60;;;9.40;99.20;;;;;;6199243;28;20642;-72
2023/10/17 08:17:35;;;;;;;6.65;5.13;;;9.40;99.10;;;;;;6213455;28;20038;-73
2023/10/17 08:20:54;;;;;;;11.20;8.75;;;9.50;98.90;;;;;;6204136;28;20555;-72
2023/10/17 08:23:54;;;;;;;6.07;4.75;;;9.50;98.60;;;;;;6196982;28;20077;-72
2023/10/17 08:30:23;;;;;;;7.68;5.03;;;9.60;98.40;;;;;;6196114;28;20049;-73
2023/10/17 08:33:36;;;;;;;6.75;4.65;;;9.80;98.30;;;;;;6214085;28;20511;-72
2023/10/17 08:36:47;;;;;;;5.93;4.72;;;10.00;98.10;;;;;;6220755;28;20124;-72
2023/10/17 08:39:53;;;;;;;11.85;6.82;;;10.20;97.90;;;;;;6220504;28;20046;-72
2023/10/17 08:42:56;;;;;;;10.20;5.63;;;10.40;97.30;;;;;;6220608;28;20453;-72
2023/10/17 08:45:59;;;;;;;7.45;5.15;;;10.50;96.90;;;;;;6208588;28;20419;-72
2023/10/17 08:49:04;;;;;;;9.82;5.93;;;10.60;96.50;;;;;;6195803;28;20647;-73
2023/10/17 08:52:06;;;;;;;5.53;4.68;;;10.70;96.10;;;;;;6196254;28;20051;-72
2023/10/17 08:55:08;;;;;;;7.50;5.25;;;10.80;95.80;;;;;;6204650;28;20125;-73
2023/10/17 08:58:10;;;;;;;7.22;5.05;;;10.90;95.50;;;;;;6195973;28;20038;-72
2023/10/17 09:01:16;;;;;;;7.70;5.43;;;11.00;94.90;;;;;;6195760;28;20527;-72
2023/10/17 09:04:18;;;;;;;8.43;4.72;;;11.10;94.60;;;;;;6196261;28;20101;-72
2023/10/17 09:07:31;;;;;;;8.00;4.78;;;11.20;94.60;;;;;;6195762;28;20128;-71
2023/10/17 09:10:37;;;;;;;5.47;4.88;;;11.30;94.30;;;;;;6195965;28;20599;-73
2023/10/17 09:14:10;;;;;;;5.97;4.45;;;11.50;94.30;;;;;;6220241;28;20136;-71
2023/10/17 09:17:17;;;;;;;6.95;4.75;;;11.70;94.00;;;;;;6215991;28;20530;-72
2023/10/17 09:20:34;;;;;;;9.10;5.18;;;11.80;93.40;;;;;;6220667;28;20197;-72
2023/10/17 09:23:38;;;;;;;9.57;5.70;;;11.80;93.20;;;;;;6223509;28;20190;-72
2023/10/17 09:26:46;;;;;;;5.65;4.35;;;11.70;92.80;;;;;;6224374;28;20454;-71
2023/10/17 09:29:50;;;;;;;11.55;5.10;;;11.70;93.10;;;;;;6224275;28;20172;-71
2023/10/17 09:32:53;;;;;;;6.15;4.88;;;11.80;92.90;;;;;;6224920;28;20184;-72
2023/10/17 09:35:58;;;;;;;9.32;5.63;;;11.90;92.70;;;;;;6224278;28;20045;-72
2023/10/17 09:39:02;;;;;;;8.95;5.20;;;12.10;92.40;;;;;;6224695;28;20137;-72
2023/10/17 09:42:05;;;;;;;7.15;4.20;;;12.10;91.90;;;;;;6224299;28;20154;-73
2023/10/17 09:45:09;;;;;;;5.85;4.93;;;12.10;91.70;;;;;;6221016;28;20082;-73
2023/10/17 09:48:18;;;;;;;6.03;5.18;;;12.10;91.50;;;;;;6213037;28;20087;-73
2023/10/17 09:51:21;;;;;;;11.80;5.28;;;12.10;91.20;;;;;;6229991;28;20367;-72
2023/10/17 09:54:25;;;;;;;6.68;5.85;;;12.10;91.10;;;;;;6210945;28;20041;-73
2023/10/17 09:57:28;;;;;;;5.65;4.45;;;12.20;90.80;;;;;;6199512;28;20411;-73
2023/10/17 10:00:39;;;;;;;5.22;4.50;;;12.10;90.40;;;;;;6199385;28;20042;-73
2023/10/17 10:03:43;;;;;;;6.40;3.90;;;12.10;90.70;;;;;;6199353;28;20065;-73
2023/10/17 10:06:45;;;;;;;5.68;4.15;;;12.30;90.40;;;;;;6198650;28;20377;-72
2023/10/17 10:09:47;;;;;;;6.85;4.25;;;12.50;90.30;;;;;;6199418;28;20062;-71
2023/10/17 10:13:06;;;;;;;5.90;4.53;;;12.80;90.10;;;;;;6199664;28;20130;-72
2023/10/17 10:16:08;;;;;;;7.18;5.10;;;13.00;89.00;;;;;;6203574;28;20065;-71
2023/10/17 10:19:14;;;;;;;6.18;4.13;;;13.10;88.20;;;;;;6215199;28;20046;-73
2023/10/17 10:22:17;;;;;;;5.85;4.20;;;13.30;87.50;;;;;;6224062;28;20042;-73
2023/10/17 10:25:20;;;;;;;11.07;4.93;;;13.30;87.00;;;;;;6223620;28;20038;-72
2023/10/17 10:28:29;;;;;;;7.68;4.78;;;13.30;87.40;;;;;;6224263;28;20225;-72
2023/10/17 10:31:40;;;;;;;9.48;4.57;;;13.60;87.00;;;;;;6198516;28;20129;-72
2023/10/17 10:34:45;;;;;;;6.78;5.57;;;14.10;86.00;;;;;;6198029;28;20039;-74
2023/10/17 10:37:52;;;;;;;6.05;4.32;;;14.20;84.10;;;;;;6211184;28;20057;-73
2023/10/17 10:40:54;;;;;;;9.43;3.85;;;14.20;84.60;;;;;;6218808;28;20050;-74
2023/10/17 10:44:01;;;;;;;12.75;8.00;;;14.20;84.40;;;;;;6197530;28;20511;-73
2023/10/17 10:47:03;;;;;;;7.55;4.93;;;14.30;83.70;;;;;;6221508;28;20053;-73
2023/10/17 10:50:11;;;;;;;5.63;5.03;;;14.40;83.70;;;;;;6210867;28;20049;-75
2023/10/17 10:53:21;;;;;;;5.45;4.20;;;14.50;82.60;;;;;;6198187;28;20054;-76
2023/10/17 10:56:25;;;;;;;8.82;4.47;;;14.30;81.90;;;;;;6223432;28;20046;-72
2023/10/17 10:59:27;;;;;;;5.07;4.57;;;14.20;82.30;;;;;;6201181;28;20120;-73
2023/10/17 11:02:30;;;;;;;7.45;4.65;;;14.20;82.20;;;;;;6220445;28;20531;-73
2023/10/17 11:05:33;;;;;;;7.40;4.88;;;14.20;81.50;;;;;;6214231;28;20051;-73
2023/10/17 11:08:36;;;;;;;5.50;4.38;;;14.20;81.30;;;;;;6200524;28;20054;-73
2023/10/17 11:11:44;;;;;;;5.38;4.25;;;14.00;80.80;;;;;;6197897;28;20045;-73
2023/10/17 11:14:46;;;;;;;5.60;3.20;;;13.90;81.60;;;;;;6202620;28;20045;-73
2023/10/17 11:17:47;;;;;;;4.10;3.10;;;13.90;81.60;;;;;;6221124;28;20418;-73
2023/10/17 11:20:56;;;;;;;6.18;4.15;;;13.90;81.80;;;;;;6221695;28;20430;-74
2023/10/17 11:24:00;;;;;;;8.90;3.65;;;13.90;81.80;;;;;;6220582;28;20046;-74
2023/10/17 11:27:03;;;;;;;10.95;3.78;;;13.80;81.50;;;;;;6210016;28;20060;-73
2023/10/17 11:30:06;;;;;;;6.10;4.55;;;13.70;81.40;;;;;;6228417;28;20714;-74
2023/10/17 11:33:11;;;;;;;6.40;4.68;;;13.80;81.90;;;;;;6222340;28;20046;-74
2023/10/17 11:36:19;;;;;;;4.82;4.18;;;13.80;81.40;;;;;;6222428;28;20042;-74
2023/10/17 11:39:26;;;;;;;5.78;4.50;;;13.70;80.50;;;;;;6221285;28;20065;-74
2023/10/17 11:42:33;;;;;;;7.28;3.63;;;13.40;81.10;;;;;;6216842;28;20054;-74
2023/10/17 11:45:41;;;;;;;5.38;3.58;;;13.50;81.60;;;;;;6200934;28;20042;-76
2023/10/17 11:48:44;;;;;;;6.97;3.95;;;13.70;81.60;;;;;;6205063;28;20168;-76
2023/10/17 11:51:51;;;;;;;7.43;4.25;;;13.80;81.30;;;;;;6221310;28;20041;-75
2023/10/17 11:54:58;;;;;;;7.10;4.25;;;14.00;81.00;;;;;;6219371;28;20050;-74
2023/10/17 11:57:59;;;;;;;6.43;4.22;;;14.00;81.00;;;;;;6197028;28;20122;-75
2023/10/17 12:01:02;;;;;;;10.75;4.38;;;14.00;80.40;;;;;;6196987;28;20050;-76
2023/10/17 12:04:06;;;;;;;7.53;4.35;;;14.00;80.60;;;;;;6197352;28;20185;-76
2023/10/17 12:07:09;;;;;;;12.07;4.78;;;14.10;80.40;;;;;;6196690;28;20061;-73
2023/10/17 12:10:11;;;;;;;7.75;4.45;;;14.20;80.50;;;;;;6196807;28;20042;-73
2023/10/17 12:13:16;;;;;;;11.50;5.38;;;14.20;80.20;;;;;;6196561;28;20514;-76
2023/10/17 12:16:23;;;;;;;6.60;4.00;;;14.30;80.30;;;;;;6202138;28;20181;-74
2023/10/17 12:19:27;;;;;;;7.45;4.28;;;14.50;80.30;;;;;;6196669;28;20050;-75
2023/10/17 12:22:31;;;;;;;6.72;5.00;;;14.60;80.00;;;;;;6196550;28;20074;-76
2023/10/17 12:25:34;;;;;;;9.30;4.88;;;14.70;79.50;;;;;;6197118;28;20133;-74
2023/10/17 12:28:36;;;;;;;11.73;5.63;;;14.60;79.30;;;;;;6196940;28;20049;-75
2023/10/17 12:31:39;;;;;;;5.93;4.47;;;14.40;79.30;;;;;;6196511;28;20046;-74
2023/10/17 12:34:41;;;;;;;7.47;4.32;;;14.40;80.10;;;;;;6196591;28;20057;-75
2023/10/17 12:37:44;;;;;;;6.68;4.57;;;14.40;80.00;;;;;;6224491;28;20053;-75
2023/10/17 12:40:46;;;;;;;6.07;4.43;;;14.60;79.80;;;;;;6222844;28;20045;-77
2023/10/17 12:43:47;;;;;;;7.05;4.68;;;14.70;79.60;;;;;;6196378;28;20090;-74
2023/10/17 12:46:50;;;;;;;6.07;4.35;;;14.70;79.80;;;;;;6201373;28;20046;-75
2023/10/17 12:49:53;;;;;;;7.55;4.75;;;15.00;79.60;;;;;;6197807;28;20042;-74
2023/10/17 12:52:56;;;;;;;9.23;4.75;;;15.00;79.20;;;;;;6209998;28;20515;-75
2023/10/17 12:55:58;;;;;;;5.15;3.60;;;15.10;79.30;;;;;;6195858;28;20050;-75
2023/10/17 12:59:00;;;;;;;6.68;3.78;;;15.10;79.30;;;;;;6208085;28;20060;-74
2023/10/17 13:02:02;;;;;;;9.43;4.72;;;15.10;79.00;;;;;;6216718;28;20050;-74
2023/10/17 13:05:05;;;;;;;6.32;4.07;;;15.00;78.80;;;;;;6200406;28;20084;-75
2023/10/17 13:08:08;;;;;;;6.97;3.63;;;15.00;78.70;;;;;;6201035;28;20423;-75
2023/10/17 13:11:10;;;;;;;7.88;4.65;;;14.90;78.90;;;;;;6203120;28;20045;-75
2023/10/17 13:14:12;;;;;;;6.75;3.97;;;15.00;78.60;;;;;;6205768;28;20072;-75
2023/10/17 13:17:14;;;;;;;7.70;4.97;;;15.10;79.10;;;;;;6202897;28;20153;-75
2023/10/17 13:20:21;;;;;;;6.75;5.15;;;15.50;78.50;;;;;;6199518;28;20042;-75
2023/10/17 13:23:25;;;;;;;8.32;4.28;;;15.50;77.60;;;;;;6200503;28;20053;-75
2023/10/17 13:26:27;;;;;;;10.68;5.18;;;15.60;77.90;;;;;;6200607;28;20102;-75
2023/10/17 13:29:29;;;;;;;6.15;5.38;;;16.10;78.10;;;;;;6200236;28;20042;-75
2023/10/17 13:32:31;;;;;;;4.22;3.60;;;16.50;76.10;;;;;;6200839;28;20061;-75
2023/10/17 13:35:37;;;;;;;8.10;5.00;;;16.70;76.10;;;;;;6200101;28;20042;-76
2023/10/17 13:38:40;;;;;;;5.35;4.30;;;16.90;74.90;;;;;;6205929;28;20053;-74
2023/10/17 13:41:42;;;;;;;4.93;4.43;;;16.70;74.80;;;;;;6200790;28;20046;-74
2023/10/17 13:44:43;;;;;;;7.05;5.00;;;16.50;75.00;;;;;;6216830;28;20052;-73
2023/10/17 13:47:45;;;;;;;6.43;5.25;;;16.20;74.90;;;;;;6223825;28;20048;-75
2023/10/17 13:50:47;;;;;;;6.72;4.15;;;15.80;74.70;;;;;;6224342;28;20050;-74
2023/10/17 13:53:50;;;;;;;8.80;4.13;;;15.60;75.40;;;;;;6224034;28;20507;-74
2023/10/17 13:56:51;;;;;;;6.75;4.50;;;15.50;76.20;;;;;;6200657;28;20049;-74
2023/10/17 13:59:54;;;;;;;5.20;4.30;;;15.60;75.90;;;;;;6223747;28;20057;-75
2023/10/17 14:02:56;;;;;;;6.85;4.95;;;15.60;75.60;;;;;;6223644;28;20049;-74
2023/10/17 14:05:58;;;;;;;6.00;4.32;;;15.50;75.40;;;;;;6223776;28;20049;-75
2023/10/17 14:09:03;;;;;;;5.90;4.18;;;15.40;76.00;;;;;;6222620;28;20050;-74
2023/10/17 14:12:08;;;;;;;7.35;4.38;;;15.50;75.80;;;;;;6224187;28;20058;-75
2023/10/17 14:15:10;;;;;;;7.63;4.22;;;15.30;75.50;;;;;;6220807;28;20091;-75
2023/10/17 14:18:14;;;;;;;7.32;4.78;;;15.10;76.20;;;;;;6218313;28;20046;-74
2023/10/17 14:21:34;;;;;;;5.95;5.32;;;15.20;76.20;;;;;;6223184;28;20499;-75
2023/10/17 14:25:00;;;;;;;6.95;5.00;;;15.00;76.10;;;;;;6223729;28;20511;-74
2023/10/17 14:28:02;;;;;;;9.10;4.85;;;14.90;76.20;;;;;;6223702;28;20042;-75
2023/10/17 14:31:05;;;;;;;6.13;4.28;;;14.70;76.40;;;;;;6222722;28;20403;-74
2023/10/17 14:34:09;;;;;;;6.25;4.72;;;14.60;76.80;;;;;;6207912;28;20050;-76
2023/10/17 14:37:13;;;;;;;8.38;4.78;;;14.40;77.30;;;;;;6222548;28;20053;-75
2023/10/17 14:40:17;;;;;;;7.35;5.15;;;14.40;77.60;;;;;;6220406;28;20057;-75
2023/10/17 14:43:19;;;;;;;8.90;4.95;;;14.30;77.60;;;;;;6198719;28;20092;-75
2023/10/17 14:46:21;;;;;;;20.35;10.57;;;14.10;77.80;;;;;;6204482;28;20053;-74
2023/10/17 14:49:23;;;;;;;11.52;5.85;;;13.90;78.30;;;;;;6207514;28;20046;-74
2023/10/17 14:52:24;;;;;;;7.35;5.60;;;13.80;78.80;;;;;;6215332;28;20053;-74
2023/10/17 14:55:28;;;;;;;7.47;5.93;;;13.70;79.10;;;;;;6209436;28;20057;-75
2023/10/17 14:58:29;;;;;;;5.95;4.45;;;13.70;79.40;;;;;;6201926;28;20574;-74
2023/10/17 15:01:32;;;;;;;8.13;3.85;;;13.70;79.90;;;;;;6198593;28;20053;-75
2023/10/17 15:04:37;;;;;;;5.22;4.57;;;13.80;80.00;;;;;;6198109;28;20046;-75
2023/10/17 15:07:39;;;;;;;6.05;3.85;;;13.70;80.20;;;;;;6207109;28;20046;-74
2023/10/17 15:10:43;;;;;;;5.82;4.13;;;13.60;80.60;;;;;;6197569;28;20046;-74
2023/10/17 15:13:45;;;;;;;9.43;5.00;;;13.50;81.30;;;;;;6204021;28;20511;-74
2023/10/17 15:16:47;;;;;;;8.23;4.68;;;13.40;81.40;;;;;;6203838;28;20072;-74
2023/10/17 15:19:49;;;;;;;7.05;4.90;;;13.30;81.80;;;;;;6197392;28;20050;-74
2023/10/17 15:22:52;;;;;;;7.20;4.93;;;13.20;81.80;;;;;;6197856;28;20054;-74
2023/10/17 15:25:58;;;;;;;8.02;4.03;;;13.00;82.20;;;;;;6197105;28;20455;-74
2023/10/17 15:29:00;;;;;;;11.32;5.00;;;12.80;82.60;;;;;;6214018;28;20061;-77
2023/10/17 15:32:02;;;;;;;5.38;4.50;;;12.70;82.80;;;;;;6221870;28;20053;-75
2023/10/17 15:35:04;;;;;;;16.92;14.98;;;12.60;83.30;;;;;;6219571;28;20049;-75
2023/10/17 15:38:06;;;;;;;49.38;41.83;;;12.50;83.60;;;;;;6197193;28;20420;-74
2023/10/17 15:41:13;;;;;;;12.68;11.13;;;12.40;83.90;;;;;;6196684;28;20409;-74
2023/10/17 15:44:17;;;;;;;10.52;7.68;;;12.30;84.30;;;;;;6198998;28;20412;-74
2023/10/17 15:47:19;;;;;;;6.68;4.45;;;12.10;84.50;;;;;;6201211;28;20137;-74
2023/10/17 15:50:22;;;;;;;7.95;5.47;;;12.00;85.00;;;;;;6201343;28;20520;-74
2023/10/17 15:53:24;;;;;;;13.57;11.55;;;11.80;85.40;;;;;;6197288;28;20058;-74
2023/10/17 15:56:30;;;;;;;7.20;6.43;;;11.70;86.00;;;;;;6212260;28;20050;-74
2023/10/17 15:59:32;;;;;;;8.15;6.35;;;11.60;86.50;;;;;;6199085;28;20049;-74
2023/10/17 16:02:33;;;;;;;6.25;5.05;;;11.50;86.70;;;;;;6201804;28;20144;-74
2023/10/17 16:05:35;;;;;;;11.30;6.72;;;11.40;87.00;;;;;;6214567;28;20037;-75
2023/10/17 16:08:37;;;;;;;9.63;5.18;;;11.40;87.40;;;;;;6199326;28;20046;-74
2023/10/17 16:11:42;;;;;;;8.65;5.30;;;11.30;87.80;;;;;;6196094;28;20049;-74
2023/10/17 16:14:44;;;;;;;5.80;4.80;;;11.10;88.10;;;;;;6201820;28;20499;-74
2023/10/17 16:17:46;;;;;;;7.90;4.82;;;11.10;88.40;;;;;;6197098;28;20046;-74
2023/10/17 16:20:47;;;;;;;5.03;4.53;;;11.00;88.70;;;;;;6206386;28;20050;-73
2023/10/17 16:23:50;;;;;;;7.22;4.13;;;10.90;89.10;;;;;;6196276;28;20505;-74
2023/10/17 16:26:53;;;;;;;10.45;8.02;;;10.80;89.50;;;;;;6196108;28;20058;-74
2023/10/17 16:29:57;;;;;;;7.03;5.38;;;10.80;89.90;;;;;;6196103;28;20047;-74
2023/10/17 16:32:58;;;;;;;4.90;4.40;;;10.70;90.10;;;;;;6225534;28;20050;-74
2023/10/17 16:36:01;;;;;;;5.68;5.03;;;10.60;90.20;;;;;;6225927;28;20046;-73
2023/10/17 16:39:04;;;;;;;6.72;4.80;;;10.60;90.60;;;;;;6225179;28;20046;-75
2023/10/17 16:42:07;;;;;;;6.90;4.40;;;10.60;90.70;;;;;;6225084;28;20396;-73
2023/10/17 16:45:11;;;;;;;8.68;5.05;;;10.60;90.80;;;;;;6223930;28;20050;-75
2023/10/17 16:48:13;;;;;;;15.88;8.85;;;10.60;90.90;;;;;;6211087;28;20048;-74
2023/10/17 16:51:18;;;;;;;6.72;4.95;;;10.50;91.00;;;;;;6224983;28;20057;-74
2023/10/17 16:54:19;;;;;;;8.93;4.43;;;10.50;91.20;;;;;;6224551;28;20050;-74
2023/10/17 16:57:22;;;;;;;6.18;4.47;;;10.40;91.30;;;;;;6222985;28;20094;-74
2023/10/17 17:00:27;;;;;;;7.35;4.50;;;10.30;91.40;;;;;;6225534;28;20468;-74
2023/10/17 17:03:29;;;;;;;5.95;3.95;;;10.30;91.50;;;;;;6225067;28;20127;-74
2023/10/17 17:06:32;;;;;;;6.07;4.35;;;10.20;91.60;;;;;;6219861;28;20042;-74
2023/10/17 17:09:36;;;;;;;4.90;3.95;;;10.20;91.80;;;;;;6200759;28;20042;-74
2023/10/17 17:12:39;;;;;;;6.57;4.25;;;10.10;91.90;;;;;;6218821;28;20053;-74
2023/10/17 17:15:41;;;;;;;9.13;4.47;;;10.00;92.10;;;;;;6218618;28;20050;-74
2023/10/17 17:18:43;;;;;;;3.83;3.25;;;10.00;92.20;;;;;;6223775;28;20540;-74
2023/10/17 17:21:46;;;;;;;5.03;4.32;;;10.00;92.60;;;;;;6211208;28;20416;-74
2023/10/17 17:24:48;;;;;;;4.20;3.75;;;9.90;92.50;;;;;;6202257;28;20058;-74
2023/10/17 17:27:51;;;;;;;6.10;4.13;;;9.90;92.70;;;;;;6200555;28;20053;-74
2023/10/17 17:30:53;;;;;;;3.67;2.95;;;9.90;92.70;;;;;;6205034;28;20046;-74